createdAt,value
2022-08-10T00:03:13.801Z,90
2022-08-10T00:08:45.803Z,88
2022-08-10T00:14:20.519Z,89
2022-08-10T00:20:08.677Z,90
2022-08-10T00:25:36.285Z,90
2022-08-10T00:30:52.286Z,89
2022-08-10T00:36:35.991Z,90
2022-08-10T00:42:16.941Z,89
2022-08-10T00:47:58.600Z,88
2022-08-10T00:53:37.292Z,89
2022-08-10T00:58:59.449Z,89
2022-08-10T01:04:35.983Z,90
2022-08-10T01:10:22.563Z,89
2022-08-10T01:15:47.760Z,90
2022-08-10T01:21:11.048Z,91
2022-08-10T01:26:56.847Z,91
2022-08-10T01:32:30.873Z,91
2022-08-10T01:38:10.840Z,92
2022-08-10T01:43:42.562Z,93
2022-08-10T01:49:02.351Z,92
2022-08-10T01:54:47.759Z,93
2022-08-10T02:00:40.146Z,92
2022-08-10T02:05:50.994Z,93
2022-08-10T02:11:29.549Z,94
2022-08-10T02:17:57.220Z,95
2022-08-10T02:22:40.100Z,95
2022-08-10T02:28:27.591Z,95
2022-08-10T02:34:07.728Z,96
2022-08-10T02:39:32.327Z,96
2022-08-10T02:45:25.009Z,97
2022-08-10T02:50:30.319Z,98
2022-08-10T02:56:11.224Z,98
2022-08-10T03:01:49.891Z,99
2022-08-10T03:07:15.672Z,99
2022-08-10T03:13:10.896Z,100
2022-08-10T03:18:44.604Z,100
2022-08-10T03:24:18.230Z,100
2022-08-10T03:30:23.915Z,100
2022-08-10T03:35:20.139Z,100
2022-08-10T03:41:09.103Z,100
2022-08-10T03:46:45.085Z,100
2022-08-10T03:52:06.102Z,100
2022-08-10T03:57:49.403Z,100
2022-08-10T04:03:04.176Z,100
2022-08-10T04:08:56.998Z,100
2022-08-10T04:14:35.843Z,100
2022-08-10T04:19:58.649Z,100
2022-08-10T04:25:37.518Z,100
2022-08-10T04:31:22.120Z,100
2022-08-10T04:36:35.968Z,100
2022-08-10T04:42:10.454Z,100
2022-08-10T04:47:51.159Z,100
2022-08-10T04:54:03.468Z,100
2022-08-10T04:59:07.771Z,100
2022-08-10T05:04:43.497Z,100
2022-08-10T05:10:13.678Z,100
2022-08-10T05:16:01.773Z,100
2022-08-10T05:21:51.985Z,100
2022-08-10T05:27:00.756Z,100
2022-08-10T05:32:55.916Z,100
2022-08-10T05:38:22.966Z,100
2022-08-10T05:43:56.125Z,100
2022-08-10T05:49:31.098Z,100
2022-08-10T05:55:14.140Z,100
2022-08-10T06:00:40.749Z,100
2022-08-10T06:06:26.805Z,100
2022-08-10T06:12:21.932Z,98
2022-08-10T06:17:16.613Z,98
2022-08-10T06:34:25.377Z,98
2022-08-10T06:39:46.430Z,94
2022-08-10T06:45:33.816Z,94
2022-08-10T06:51:16.158Z,94
2022-08-10T06:57:01.958Z,92
2022-08-10T07:02:15.188Z,92
2022-08-10T07:08:12.927Z,90
2022-08-10T07:14:13.868Z,87
2022-08-10T07:19:13.610Z,87
2022-08-10T07:24:52.577Z,84
2022-08-10T07:30:25.203Z,81
2022-08-10T07:36:17.436Z,81
2022-08-10T07:41:35.279Z,79
2022-08-10T07:47:15.201Z,79
2022-08-10T07:52:52.663Z,78
2022-08-10T07:58:39.428Z,76
2022-08-10T08:04:13.762Z,76
2022-08-10T08:09:56.970Z,75
2022-08-10T08:16:16.070Z,76
2022-08-10T08:24:01.841Z,74
2022-08-10T08:26:40.021Z,71
2022-08-10T08:32:22.689Z,71
2022-08-10T08:38:29.050Z,70
2022-08-10T08:43:42.796Z,71
2022-08-10T08:50:04.664Z,69
2022-08-10T08:55:00.247Z,68
2022-08-10T09:00:41.388Z,68
2022-08-10T09:05:58.988Z,68
2022-08-10T09:11:48.163Z,66
2022-08-10T09:17:22.070Z,65
2022-08-10T09:22:57.354Z,64
2022-08-10T09:28:44.822Z,63
2022-08-10T09:36:19.016Z,64
2022-08-10T09:40:06.109Z,64
2022-08-10T09:45:34.286Z,62
2022-08-10T09:57:41.359Z,60
2022-08-10T10:02:35.122Z,59
2022-08-10T10:07:59.371Z,59
2022-08-10T10:14:07.299Z,59
2022-08-10T10:19:17.073Z,56
2022-08-10T10:25:20.104Z,56
2022-08-10T10:30:52.440Z,55
2022-08-10T10:36:28.068Z,55
2022-08-10T10:42:05.959Z,55
2022-08-10T10:47:52.403Z,54
2022-08-10T10:53:26.218Z,54
2022-08-10T10:58:48.767Z,54
2022-08-10T11:04:48.144Z,52
2022-08-10T11:10:09.389Z,52
2022-08-10T11:16:06.776Z,52
2022-08-10T11:21:25.460Z,52
2022-08-10T11:27:22.558Z,51
2022-08-10T11:44:29.639Z,51
2022-08-10T11:49:42.476Z,50
2022-08-10T11:55:25.845Z,50
2022-08-10T12:01:24.855Z,50
2022-08-10T12:06:56.513Z,48
2022-08-10T12:12:44.648Z,48
2022-08-10T12:18:14.933Z,47
2022-08-10T12:24:02.382Z,47
2022-08-10T12:29:24.874Z,47
2022-08-10T12:35:12.458Z,46
2022-08-10T12:40:44.621Z,47
2022-08-10T12:46:46.187Z,46
2022-08-10T12:52:24.538Z,44
2022-08-10T12:57:47.249Z,45
2022-08-10T13:04:20.036Z,45
2022-08-10T13:09:28.452Z,43
2022-08-10T13:15:25.500Z,43
2022-08-10T13:20:48.979Z,43
2022-08-10T13:26:18.168Z,41
2022-08-10T13:32:04.151Z,44
2022-08-10T13:37:36.856Z,43
2022-08-10T13:43:06.070Z,42
2022-08-10T13:49:07.171Z,41
2022-08-10T13:54:43.250Z,43
2022-08-10T14:00:35.677Z,41
2022-08-10T14:06:05.132Z,42
2022-08-10T14:11:30.133Z,41
2022-08-10T14:17:17.772Z,41
2022-08-10T14:22:44.044Z,41
2022-08-10T14:28:21.172Z,41
2022-08-10T14:34:08.432Z,40
2022-08-10T14:40:05.783Z,40
2022-08-10T14:45:46.218Z,40
2022-08-10T14:51:18.351Z,40
2022-08-10T14:56:49.393Z,41
2022-08-10T15:02:39.545Z,41
2022-08-10T15:08:16.841Z,40
2022-08-10T15:13:41.465Z,40
2022-08-10T15:20:03.988Z,41
2022-08-10T15:25:18.505Z,40
2022-08-10T15:30:49.527Z,40
2022-08-10T15:36:35.035Z,40
2022-08-10T15:42:20.373Z,40
2022-08-10T15:48:01.878Z,39
2022-08-10T15:53:27.610Z,40
2022-08-10T15:59:09.104Z,40
2022-08-10T16:04:50.477Z,40
2022-08-10T16:10:28.498Z,40
2022-08-10T16:15:59.704Z,39
2022-08-10T16:21:45.261Z,40
2022-08-10T16:27:12.948Z,40
2022-08-10T16:32:56.913Z,41
2022-08-10T16:38:50.773Z,40
2022-08-10T16:44:15.241Z,41
2022-08-10T16:50:10.366Z,40
2022-08-10T16:55:47.737Z,41
2022-08-10T17:01:12.523Z,39
2022-08-10T17:06:57.166Z,40
2022-08-10T17:12:27.207Z,41
2022-08-10T17:18:16.247Z,41
2022-08-10T17:23:45.314Z,42
2022-08-10T17:29:54.013Z,42
2022-08-10T17:35:11.609Z,42
2022-08-10T17:41:06.143Z,42
2022-08-10T17:46:33.487Z,42
2022-08-10T17:52:09.020Z,42
2022-08-10T17:57:44.992Z,43
2022-08-10T18:03:26.143Z,44
2022-08-10T18:09:19.155Z,45
2022-08-10T18:14:42.560Z,45
2022-08-10T18:20:34.334Z,47
2022-08-10T18:26:04.486Z,48
2022-08-10T18:31:27.560Z,49
2022-08-10T18:37:20.211Z,49
2022-08-10T18:43:10.195Z,50
2022-08-10T18:48:33.315Z,52
2022-08-10T18:54:07.200Z,52
2022-08-10T19:00:04.199Z,53
2022-08-10T19:05:30.768Z,53
2022-08-10T19:10:53.953Z,53
2022-08-10T19:16:26.861Z,53
2022-08-10T19:21:53.135Z,54
2022-08-10T19:27:48.490Z,56
2022-08-10T19:33:18.669Z,57
2022-08-10T19:38:56.656Z,59
2022-08-10T19:44:26.682Z,59
2022-08-10T19:49:51.866Z,61
2022-08-10T19:55:29.349Z,63
2022-08-10T20:01:13.275Z,63
2022-08-10T20:06:46.727Z,63
2022-08-10T20:12:11.770Z,64
2022-08-10T20:17:53.035Z,64
2022-08-10T20:23:54.031Z,65
2022-08-10T20:29:23.275Z,63
2022-08-10T20:35:00.180Z,64
2022-08-10T20:40:30.520Z,64
2022-08-10T20:46:10.008Z,65
2022-08-10T20:51:22.209Z,64
2022-08-10T20:57:53.988Z,65
2022-08-10T21:02:35.230Z,66
2022-08-10T21:08:30.883Z,66
2022-08-10T21:13:45.831Z,67
2022-08-10T21:19:29.931Z,68
2022-08-10T21:25:10.011Z,68
2022-08-10T21:30:36.520Z,71
2022-08-10T21:36:15.075Z,70
2022-08-10T21:41:56.770Z,69
2022-08-10T21:48:04.687Z,69
2022-08-10T21:53:44.307Z,70
2022-08-10T21:58:43.057Z,71
2022-08-10T22:04:14.924Z,73
2022-08-10T22:10:05.000Z,74
2022-08-10T22:16:03.409Z,74
2022-08-10T22:21:15.807Z,75
2022-08-10T22:26:44.930Z,76
2022-08-10T22:32:31.557Z,77
2022-08-10T22:37:52.790Z,78
2022-08-10T22:43:33.574Z,82
2022-08-10T22:49:24.362Z,82
2022-08-10T22:54:47.949Z,82
2022-08-10T23:00:35.149Z,83
2022-08-10T23:06:03.950Z,83
2022-08-10T23:11:41.511Z,84
2022-08-10T23:16:59.732Z,84
2022-08-10T23:22:53.984Z,85
2022-08-10T23:28:39.507Z,88
2022-08-10T23:33:47.760Z,88
2022-08-10T23:39:43.962Z,87
2022-08-10T23:45:05.746Z,89
2022-08-10T23:50:53.215Z,94
2022-08-10T23:56:18.451Z,94
